Time;durP1;ratioP1;P1;durP2;ratioP2;P2;SDS_P1;SDS_P2;PMS_P1;PMS_P2;Temp;Humidity;BMP_temperature;BMP_pressure;BME280_temperature;BME280_humidity;BME280_pressure;Samples;Min_cycle;Max_cycle;Signal;HPM_P1;HPM_P2
2022/11/19 00:02:03;;;;;;;;;;;7.80;99.90;;;;;;1881042;76;20210;-76
2022/11/19 00:04:30;;;;;;;;;;;7.80;99.90;;;;;;1882817;75;20179;-77
2022/11/19 00:06:57;;;;;;;;;;;7.80;99.90;;;;;;1884764;75;20162;-77
2022/11/19 00:09:24;;;;;;;;;;;7.80;99.90;;;;;;1885191;76;20109;-77
2022/11/19 00:14:35;;;;;;;;;;;7.80;99.90;;;;;;1883441;76;20335;-77
2022/11/19 00:17:02;;;;;;;;;;;7.80;99.90;;;;;;1878257;76;20120;-78
2022/11/19 00:19:29;;;;;;;;;;;7.70;99.90;;;;;;1880048;76;20363;-78
2022/11/19 00:21:55;;;;;;;;;;;7.70;99.90;;;;;;1883739;76;20132;-77
2022/11/19 00:24:22;;;;;;;;;;;7.70;99.90;;;;;;1880377;76;20357;-77
2022/11/19 00:26:49;;;;;;;;;;;7.80;99.90;;;;;;1879439;76;20124;-76
2022/11/19 00:29:15;;;;;;;;;;;7.80;99.90;;;;;;1882941;76;20189;-77
2022/11/19 00:31:42;;;;;;;;;;;7.80;99.90;;;;;;1881081;76;20116;-77
2022/11/19 00:34:10;;;;;;;;;;;7.90;99.90;;;;;;1878590;76;20344;-77
2022/11/19 00:36:36;;;;;;;;;;;7.80;99.90;;;;;;1879868;76;20351;-78
2022/11/19 00:39:03;;;;;;;;;;;7.70;99.90;;;;;;1882271;74;20266;-77
2022/11/19 00:41:30;;;;;;;;;;;7.80;99.90;;;;;;1883335;76;20139;-77
2022/11/19 00:43:56;;;;;;;;;;;7.80;99.90;;;;;;1881721;76;20101;-78
2022/11/19 00:46:28;;;;;;;;;;;7.70;99.90;;;;;;1878040;75;20101;-77
2022/11/19 00:48:55;;;;;;;;;;;7.60;99.90;;;;;;1877540;76;20117;-78
2022/11/19 00:51:22;;;;;;;;;;;7.70;99.90;;;;;;1876584;76;20189;-78
2022/11/19 00:53:50;;;;;;;;;;;7.60;99.90;;;;;;1881064;76;20112;-78
2022/11/19 00:56:17;;;;;;;;;;;7.60;99.90;;;;;;1881973;76;20167;-78
2022/11/19 00:58:44;;;;;;;;;;;7.60;99.90;;;;;;1878091;76;20360;-77
2022/11/19 01:01:11;;;;;;;;;;;7.60;99.90;;;;;;1881283;76;20195;-78
2022/11/19 01:03:37;;;;;;;;;;;7.60;99.90;;;;;;1881247;76;20362;-77
2022/11/19 01:06:04;;;;;;;;;;;7.60;99.90;;;;;;1881373;76;20150;-78
2022/11/19 01:08:31;;;;;;;;;;;7.60;99.90;;;;;;1880241;76;20194;-77
2022/11/19 01:11:05;;;;;;;;;;;7.50;99.90;;;;;;1875390;76;20352;-76
2022/11/19 01:13:35;;;;;;;;;;;7.50;99.90;;;;;;1877251;76;20160;-77
2022/11/19 01:16:03;;;;;;;;;;;7.50;99.90;;;;;;1880231;76;20117;-77
2022/11/19 01:18:29;;;;;;;;;;;7.50;99.90;;;;;;1878041;76;20154;-77
2022/11/19 01:20:56;;;;;;;;;;;7.50;99.90;;;;;;1876512;76;20362;-76
2022/11/19 01:23:23;;;;;;;;;;;7.50;99.90;;;;;;1882927;76;20201;-77
2022/11/19 01:25:49;;;;;;;;;;;7.50;99.90;;;;;;1881249;76;20327;-79
2022/11/19 01:28:16;;;;;;;;;;;7.50;99.90;;;;;;1880822;76;20148;-77
2022/11/19 01:30:43;;;;;;;;;;;7.50;99.90;;;;;;1884709;75;20359;-77
2022/11/19 01:33:10;;;;;;;;;;;7.50;99.90;;;;;;1880588;75;20112;-77
2022/11/19 01:35:36;;;;;;;;;;;7.50;99.90;;;;;;1878934;75;20344;-77
2022/11/19 01:38:03;;;;;;;;;;;7.40;99.90;;;;;;1879380;76;20190;-77
2022/11/19 01:40:30;;;;;;;;;;;7.50;99.90;;;;;;1880788;76;20207;-77
2022/11/19 01:42:56;;;;;;;;;;;7.50;99.90;;;;;;1877067;75;20217;-77
2022/11/19 01:45:28;;;;;;;;;;;7.50;99.90;;;;;;1878695;76;20112;-78
2022/11/19 01:47:54;;;;;;;;;;;7.40;99.90;;;;;;1881593;76;20328;-77
2022/11/19 01:50:21;;;;;;;;;;;7.40;99.90;;;;;;1880576;76;20144;-77
2022/11/19 01:52:48;;;;;;;;;;;7.50;99.90;;;;;;1877987;76;20320;-78
2022/11/19 01:55:15;;;;;;;;;;;7.30;99.90;;;;;;1878645;76;20162;-79
2022/11/19 01:57:42;;;;;;;;;;;7.30;99.90;;;;;;1880367;76;20155;-79
2022/11/19 02:00:09;;;;;;;;;;;7.50;99.90;;;;;;1879239;76;20104;-79
2022/11/19 02:02:35;;;;;;;;;;;7.40;99.90;;;;;;1877850;76;20124;-79
2022/11/19 02:05:02;;;;;;;;;;;7.40;99.90;;;;;;1878366;76;20191;-79
2022/11/19 02:07:30;;;;;;;;;;;7.50;99.90;;;;;;1881472;75;20152;-78
2022/11/19 02:09:58;;;;;;;;;;;7.50;99.90;;;;;;1880927;76;20146;-78
2022/11/19 02:12:39;;;;;;;;;;;7.50;99.90;;;;;;1879357;76;20143;-77
2022/11/19 02:15:07;;;;;;;;;;;7.40;99.90;;;;;;1883197;76;20143;-77
2022/11/19 02:17:48;;;;;;;;;;;7.30;99.90;;;;;;1879105;76;20116;-79
2022/11/19 02:20:34;;;;;;;;;;;7.30;99.90;;;;;;1879356;76;20212;-79
2022/11/19 02:23:10;;;;;;;;;;;7.30;99.90;;;;;;1881986;76;20168;-78
2022/11/19 02:25:41;;;;;;;;;;;7.20;99.90;;;;;;1884694;76;20355;-79
2022/11/19 02:28:09;;;;;;;;;;;7.10;99.90;;;;;;1883565;76;20209;-79
2022/11/19 02:30:43;;;;;;;;;;;7.30;99.90;;;;;;1881840;74;20112;-77
2022/11/19 02:33:14;;;;;;;;;;;7.30;99.90;;;;;;1879445;76;20166;-76
2022/11/19 02:35:42;;;;;;;;;;;7.20;99.90;;;;;;1882963;76;20144;-79
2022/11/19 02:38:16;;;;;;;;;;;7.30;99.90;;;;;;1880503;76;20117;-76
2022/11/19 02:40:45;;;;;;;;;;;7.40;99.90;;;;;;1884491;76;20201;-78
2022/11/19 02:43:13;;;;;;;;;;;7.30;99.90;;;;;;1876521;74;20160;-79
2022/11/19 02:45:44;;;;;;;;;;;7.40;99.90;;;;;;1880641;76;20116;-79
2022/11/19 02:48:12;;;;;;;;;;;7.40;99.90;;;;;;1882650;76;20364;-79
2022/11/19 02:50:43;;;;;;;;;;;7.50;99.90;;;;;;1879303;76;20367;-78
2022/11/19 02:53:10;;;;;;;;;;;7.40;99.90;;;;;;1884568;76;20124;-77
2022/11/19 02:55:37;;;;;;;;;;;7.40;99.90;;;;;;1883993;76;20355;-79
2022/11/19 02:58:05;;;;;;;;;;;7.40;99.90;;;;;;1877285;76;20147;-80
2022/11/19 03:06:05;;;;;;;;;;;7.50;99.90;;;;;;1961276;73;20124;-79
2022/11/19 03:08:32;;;;;;;;;;;7.60;99.90;;;;;;1961173;73;20096;-79
2022/11/19 03:11:00;;;;;;;;;;;7.50;99.90;;;;;;1961139;73;20323;-78
2022/11/19 03:19:00;;;;;;;;;;;7.50;99.90;;;;;;1961145;73;20355;-79
2022/11/19 03:21:35;;;;;;;;;;;7.40;99.90;;;;;;1961140;73;20397;-79
2022/11/19 03:24:03;;;;;;;;;;;7.50;99.90;;;;;;1961153;73;20104;-78
2022/11/19 03:26:31;;;;;;;;;;;7.50;99.90;;;;;;1959874;72;20115;-78
2022/11/19 03:28:59;;;;;;;;;;;7.60;99.90;;;;;;1961101;72;20393;-79
2022/11/19 03:31:26;;;;;;;;;;;7.60;99.90;;;;;;1961193;73;20311;-78
2022/11/19 03:33:55;;;;;;;;;;;7.60;99.90;;;;;;1961105;73;20166;-79
2022/11/19 03:36:26;;;;;;;;;;;7.60;99.90;;;;;;1934716;73;20161;-78
2022/11/19 03:38:54;;;;;;;;;;;7.50;99.90;;;;;;1928495;73;20127;-79
2022/11/19 03:41:21;;;;;;;;;;;7.50;99.90;;;;;;1961083;73;20104;-79
2022/11/19 03:43:49;;;;;;;;;;;7.60;99.90;;;;;;1961069;73;20412;-78
2022/11/19 03:46:16;;;;;;;;;;;7.60;99.90;;;;;;1961047;72;20221;-77
2022/11/19 03:48:44;;;;;;;;;;;7.60;99.90;;;;;;1961224;73;20100;-78
2022/11/19 03:51:27;;;;;;;;;;;7.60;99.90;;;;;;1961062;72;20107;-79
2022/11/19 03:53:54;;;;;;;;;;;7.50;99.90;;;;;;1961040;72;20150;-79
2022/11/19 03:56:21;;;;;;;;;;;7.50;99.90;;;;;;1961212;73;20326;-79
2022/11/19 03:58:48;;;;;;;;;;;7.40;99.90;;;;;;1960998;73;20214;-79
2022/11/19 04:01:15;;;;;;;;;;;7.40;99.90;;;;;;1961274;72;20149;-78
2022/11/19 04:04:34;;;;;;;;;;;7.30;99.90;;;;;;1961238;73;20146;-79
2022/11/19 04:06:10;;;;;;;;;;;7.40;99.90;;;;;;1956922;72;20336;-78
2022/11/19 04:08:36;;;;;;;;;;;7.60;99.90;;;;;;1961190;73;20111;-79
2022/11/19 04:11:03;;;;;;;;;;;7.60;99.90;;;;;;1961132;71;20373;-78
2022/11/19 04:13:30;;;;;;;;;;;7.60;99.90;;;;;;1961212;73;20181;-78
2022/11/19 04:15:56;;;;;;;;;;;7.60;99.90;;;;;;1961075;71;20343;-79
2022/11/19 04:18:23;;;;;;;;;;;7.60;99.90;;;;;;1961276;73;20116;-78
2022/11/19 04:20:50;;;;;;;;;;;7.50;99.90;;;;;;1961093;73;20350;-79
2022/11/19 04:23:17;;;;;;;;;;;7.50;99.90;;;;;;1961135;73;20111;-79
2022/11/19 04:25:45;;;;;;;;;;;7.50;99.90;;;;;;1961203;72;20177;-79
2022/11/19 04:28:12;;;;;;;;;;;7.50;99.90;;;;;;1961118;72;20192;-79
2022/11/19 04:30:39;;;;;;;;;;;7.50;99.90;;;;;;1961136;73;20162;-79
2022/11/19 04:33:05;;;;;;;;;;;7.60;99.90;;;;;;1961495;72;20123;-79
2022/11/19 04:35:33;;;;;;;;;;;7.60;99.90;;;;;;1964122;72;20116;-78
2022/11/19 04:37:59;;;;;;;;;;;7.70;99.90;;;;;;1963577;72;20099;-78
2022/11/19 04:40:26;;;;;;;;;;;7.70;99.90;;;;;;1961177;73;20100;-77
2022/11/19 04:42:53;;;;;;;;;;;7.70;99.90;;;;;;1961132;73;20123;-78
2022/11/19 04:45:19;;;;;;;;;;;7.60;99.90;;;;;;1961213;71;20116;-79
2022/11/19 04:47:46;;;;;;;;;;;7.70;99.90;;;;;;1961102;73;20111;-79
2022/11/19 04:50:13;;;;;;;;;;;7.60;99.90;;;;;;1961059;73;20107;-78
2022/11/19 04:52:39;;;;;;;;;;;7.60;99.90;;;;;;1961276;73;20150;-78
2022/11/19 04:55:06;;;;;;;;;;;7.60;99.90;;;;;;1961070;73;20146;-78
2022/11/19 04:57:33;;;;;;;;;;;7.60;99.90;;;;;;1961130;73;20105;-79
2022/11/19 05:00:00;;;;;;;;;;;7.70;99.90;;;;;;1960979;71;20303;-79
2022/11/19 05:02:26;;;;;;;;;;;7.60;99.90;;;;;;1961084;73;20111;-79
2022/11/19 05:04:53;;;;;;;;;;;7.60;99.90;;;;;;1960988;72;20308;-78
2022/11/19 05:07:20;;;;;;;;;;;7.60;99.90;;;;;;1961106;73;20089;-78
2022/11/19 05:09:46;;;;;;;;;;;7.50;99.90;;;;;;1961035;73;20315;-78
2022/11/19 05:12:13;;;;;;;;;;;7.50;99.90;;;;;;1961070;72;20142;-77
2022/11/19 05:14:40;;;;;;;;;;;7.50;99.90;;;;;;1961177;73;20186;-78
2022/11/19 05:17:06;;;;;;;;;;;7.50;99.90;;;;;;1961111;73;20104;-78
2022/11/19 05:19:33;;;;;;;;;;;7.50;99.90;;;;;;1961009;73;20149;-78
2022/11/19 05:22:00;;;;;;;;;;;7.60;99.90;;;;;;1961053;73;20124;-78
2022/11/19 05:24:27;;;;;;;;;;;7.50;99.90;;;;;;1961052;71;20119;-78
2022/11/19 05:26:53;;;;;;;;;;;7.50;99.90;;;;;;1961036;73;20111;-78
2022/11/19 05:29:20;;;;;;;;;;;7.50;99.90;;;;;;1961096;73;20112;-78
2022/11/19 05:31:47;;;;;;;;;;;7.50;99.90;;;;;;1961098;73;20145;-79
2022/11/19 05:34:13;;;;;;;;;;;7.60;99.90;;;;;;1961160;73;20138;-79
2022/11/19 05:36:40;;;;;;;;;;;7.60;99.90;;;;;;1961037;73;20155;-79
2022/11/19 05:39:07;;;;;;;;;;;7.60;99.90;;;;;;1961132;73;20115;-79
2022/11/19 05:41:33;;;;;;;;;;;7.60;99.90;;;;;;1961248;73;20104;-85
2022/11/19 05:44:00;;;;;;;;;;;7.50;99.90;;;;;;1961032;73;20319;-77
2022/11/19 05:46:27;;;;;;;;;;;7.60;99.90;;;;;;1961048;73;20100;-78
2022/11/19 05:48:53;;;;;;;;;;;7.50;99.90;;;;;;1961127;72;20306;-78
2022/11/19 05:51:20;;;;;;;;;;;7.50;99.90;;;;;;1961117;72;20207;-78
2022/11/19 05:53:47;;;;;;;;;;;7.50;99.90;;;;;;1961152;73;20307;-78
2022/11/19 05:56:16;;;;;;;;;;;7.60;99.90;;;;;;1961034;72;20104;-78
2022/11/19 05:58:42;;;;;;;;;;;7.50;99.90;;;;;;1960950;73;20168;-77
2022/11/19 06:01:09;;;;;;;;;;;7.50;99.90;;;;;;1961001;73;20228;-78
2022/11/19 06:03:36;;;;;;;;;;;7.50;99.90;;;;;;1960994;73;20116;-78
2022/11/19 06:06:03;;;;;;;;;;;7.50;99.90;;;;;;1961172;73;20104;-79
2022/11/19 06:08:30;;;;;;;;;;;7.50;99.90;;;;;;1961368;73;20110;-79
2022/11/19 06:10:57;;;;;;;;;;;7.40;99.90;;;;;;1961212;73;20330;-79
2022/11/19 06:13:23;;;;;;;;;;;7.40;99.90;;;;;;1961360;72;20100;-78
2022/11/19 06:15:50;;;;;;;;;;;7.40;99.90;;;;;;1961335;73;20100;-78
2022/11/19 06:18:17;;;;;;;;;;;7.50;99.90;;;;;;1961365;73;20096;-79
2022/11/19 06:20:43;;;;;;;;;;;7.50;99.90;;;;;;1961393;73;20100;-78
2022/11/19 06:23:10;;;;;;;;;;;7.50;99.90;;;;;;1961381;73;20185;-78
2022/11/19 06:25:37;;;;;;;;;;;7.50;99.90;;;;;;1961874;73;20096;-78
2022/11/19 06:28:04;;;;;;;;;;;7.50;99.90;;;;;;1961724;73;20174;-78
2022/11/19 06:30:30;;;;;;;;;;;7.50;99.90;;;;;;1961576;73;20176;-79
2022/11/19 06:32:57;;;;;;;;;;;7.40;99.90;;;;;;1961374;72;20142;-79
2022/11/19 06:35:24;;;;;;;;;;;7.50;99.90;;;;;;1961263;73;20112;-77
2022/11/19 06:37:50;;;;;;;;;;;7.60;99.90;;;;;;1961465;73;20327;-79
2022/11/19 06:40:17;;;;;;;;;;;7.50;99.90;;;;;;1934926;73;20159;-78
2022/11/19 06:42:44;;;;;;;;;;;7.50;99.90;;;;;;1961197;73;20335;-78
2022/11/19 06:45:11;;;;;;;;;;;7.60;99.90;;;;;;1961355;73;20104;-78
2022/11/19 06:47:38;;;;;;;;;;;7.60;99.90;;;;;;1961463;72;20142;-77
2022/11/19 06:50:05;;;;;;;;;;;7.50;99.90;;;;;;1961616;73;20334;-78
2022/11/19 06:52:32;;;;;;;;;;;7.40;99.90;;;;;;1961978;72;20416;-76
2022/11/19 06:54:59;;;;;;;;;;;7.50;99.90;;;;;;1962481;72;20190;-78
2022/11/19 06:57:26;;;;;;;;;;;7.40;99.90;;;;;;1961539;73;20323;-78
2022/11/19 06:59:52;;;;;;;;;;;7.50;99.90;;;;;;1961478;72;20120;-78
2022/11/19 07:02:19;;;;;;;;;;;7.60;99.90;;;;;;1961666;73;20189;-78
2022/11/19 07:04:46;;;;;;;;;;;7.60;99.90;;;;;;1961464;73;20346;-78
2022/11/19 07:07:12;;;;;;;;;;;7.70;99.90;;;;;;1961663;73;20111;-77
2022/11/19 07:09:39;;;;;;;;;;;7.60;99.90;;;;;;1962143;73;20198;-80
2022/11/19 07:12:06;;;;;;;;;;;7.60;99.90;;;;;;1963602;72;20140;-81
2022/11/19 07:14:34;;;;;;;;;;;7.60;99.90;;;;;;1963616;73;20142;-79
2022/11/19 07:17:01;;;;;;;;;;;7.70;99.90;;;;;;1961623;73;20104;-81
2022/11/19 07:19:27;;;;;;;;;;;7.70;99.90;;;;;;1961440;72;20315;-79
2022/11/19 07:21:54;;;;;;;;;;;7.80;99.90;;;;;;1962294;72;20123;-79
2022/11/19 07:24:21;;;;;;;;;;;7.80;99.90;;;;;;1963402;73;20150;-79
2022/11/19 07:26:48;;;;;;;;;;;7.70;99.90;;;;;;1962073;73;20112;-78
2022/11/19 07:29:14;;;;;;;;;;;7.90;99.90;;;;;;1961306;73;20131;-76
2022/11/19 07:31:41;;;;;;;;;;;7.90;99.90;;;;;;1961355;73;20365;-79
2022/11/19 07:34:08;;;;;;;;;;;7.90;99.90;;;;;;1962049;73;20147;-80
2022/11/19 07:36:35;;;;;;;;;;;8.00;99.90;;;;;;1961573;73;20138;-81
2022/11/19 07:39:02;;;;;;;;;;;8.00;99.90;;;;;;1961838;73;20111;-79
2022/11/19 07:44:13;;;;;;;;;;;7.90;99.90;;;;;;1961358;73;20170;-79
2022/11/19 07:46:40;;;;;;;;;;;7.90;99.90;;;;;;1961380;73;20146;-80
2022/11/19 07:49:07;;;;;;;;;;;7.80;99.90;;;;;;1961432;73;20096;-84
2022/11/19 07:51:33;;;;;;;;;;;7.80;99.90;;;;;;1961344;72;20123;-82
2022/11/19 07:54:00;;;;;;;;;;;7.90;99.90;;;;;;1961229;73;20108;-82
2022/11/19 07:56:27;;;;;;;;;;;7.90;99.90;;;;;;1961320;73;20100;-81
2022/11/19 07:58:54;;;;;;;;;;;8.00;99.90;;;;;;1961243;73;20370;-80
2022/11/19 08:01:21;;;;;;;;;;;8.00;99.90;;;;;;1961244;73;20141;-80
2022/11/19 08:03:48;;;;;;;;;;;8.10;99.90;;;;;;1961254;73;20162;-81
2022/11/19 08:06:15;;;;;;;;;;;8.30;99.90;;;;;;1961330;73;20181;-80
2022/11/19 08:08:42;;;;;;;;;;;8.40;99.90;;;;;;1961365;71;20138;-81
2022/11/19 08:11:09;;;;;;;;;;;8.50;99.90;;;;;;1961332;71;20358;-79
2022/11/19 08:13:36;;;;;;;;;;;8.50;99.90;;;;;;1961871;71;20111;-82
2022/11/19 08:16:03;;;;;;;;;;;8.50;99.90;;;;;;1963139;73;20135;-82
2022/11/19 08:18:30;;;;;;;;;;;8.50;99.90;;;;;;1962789;73;20100;-82
2022/11/19 08:20:58;;;;;;;;;;;8.40;99.90;;;;;;1961446;73;20116;-80
2022/11/19 08:23:25;;;;;;;;;;;8.40;99.90;;;;;;1960796;71;20100;-82
2022/11/19 08:25:52;;;;;;;;;;;8.30;99.90;;;;;;1961209;73;20112;-81
2022/11/19 08:28:18;;;;;;;;;;;8.40;99.90;;;;;;1961145;71;20204;-81
2022/11/19 08:30:47;;;;;;;;;;;8.30;99.90;;;;;;1961143;71;20115;-82
2022/11/19 08:33:13;;;;;;;;;;;8.40;99.90;;;;;;1961286;73;20145;-82
2022/11/19 08:35:41;;;;;;;;;;;8.30;99.90;;;;;;1961310;73;20111;-83
2022/11/19 08:38:09;;;;;;;;;;;8.10;99.90;;;;;;1961383;73;20108;-83
2022/11/19 08:40:35;;;;;;;;;;;8.20;99.90;;;;;;1961278;73;20172;-81
2022/11/19 08:43:02;;;;;;;;;;;8.10;99.90;;;;;;1961173;71;20157;-80
2022/11/19 08:45:29;;;;;;;;;;;8.30;99.90;;;;;;1961164;73;20170;-80
2022/11/19 08:47:56;;;;;;;;;;;8.50;99.90;;;;;;1961238;73;20145;-81
2022/11/19 08:50:23;;;;;;;;;;;8.60;99.90;;;;;;1961253;73;20112;-77
2022/11/19 08:52:59;;;;;;;;;;;8.70;99.90;;;;;;1961133;73;20438;-77
2022/11/19 08:55:26;;;;;;;;;;;8.70;99.90;;;;;;1961128;73;20100;-78
2022/11/19 08:57:54;;;;;;;;;;;8.70;99.90;;;;;;1961136;73;20112;-77
2022/11/19 09:00:21;;;;;;;;;;;8.60;99.90;;;;;;1960576;73;20391;-79
2022/11/19 09:02:48;;;;;;;;;;;8.70;99.90;;;;;;1961079;73;20132;-78
2022/11/19 09:05:15;;;;;;;;;;;8.50;99.90;;;;;;1961111;73;20178;-79
2022/11/19 09:07:41;;;;;;;;;;;8.40;99.90;;;;;;1961225;73;20149;-79
2022/11/19 09:10:09;;;;;;;;;;;8.70;99.90;;;;;;1961461;73;20111;-80
2022/11/19 09:12:36;;;;;;;;;;;8.70;99.90;;;;;;1961509;73;20256;-79
2022/11/19 09:15:03;;;;;;;;;;;8.70;99.90;;;;;;1961381;73;20315;-80
2022/11/19 09:17:29;;;;;;;;;;;8.80;99.90;;;;;;1961693;73;20393;-79
2022/11/19 09:19:56;;;;;;;;;;;9.00;99.90;;;;;;1961461;73;20153;-78
2022/11/19 09:22:23;;;;;;;;;;;9.20;99.90;;;;;;1961426;71;20373;-78
2022/11/19 09:24:49;;;;;;;;;;;9.50;99.90;;;;;;1961638;73;20166;-78
2022/11/19 09:27:16;;;;;;;;;;;9.50;99.90;;;;;;1961396;73;20342;-78
2022/11/19 09:29:43;;;;;;;;;;;10.10;99.90;;;;;;1961390;73;20117;-79
2022/11/19 09:32:10;;;;;;;;;;;10.30;99.90;;;;;;1961907;73;20167;-78
2022/11/19 09:34:40;;;;;;;;;;;10.20;99.90;;;;;;1961423;72;20153;-78
2022/11/19 09:37:07;;;;;;;;;;;10.10;99.90;;;;;;1960812;73;20115;-78
2022/11/19 09:39:34;;;;;;;;;;;10.00;99.90;;;;;;1961083;73;20113;-77
2022/11/19 09:42:05;;;;;;;;;;;10.10;99.90;;;;;;1961199;73;20159;-79
2022/11/19 09:44:37;;;;;;;;;;;10.10;99.90;;;;;;1961337;73;20166;-79
2022/11/19 09:47:11;;;;;;;;;;;10.00;99.90;;;;;;1961287;73;20143;-82
2022/11/19 09:49:47;;;;;;;;;;;9.80;99.90;;;;;;1960709;71;20111;-81
2022/11/19 09:52:14;;;;;;;;;;;9.70;99.90;;;;;;1961111;72;20136;-80
2022/11/19 09:54:43;;;;;;;;;;;9.80;99.90;;;;;;1961198;73;20123;-81
2022/11/19 09:57:10;;;;;;;;;;;9.90;99.90;;;;;;1961536;73;20217;-81
2022/11/19 09:59:38;;;;;;;;;;;10.10;99.90;;;;;;1961458;73;20153;-81
2022/11/19 10:02:15;;;;;;;;;;;10.10;99.90;;;;;;1961115;73;20111;-84
2022/11/19 10:04:41;;;;;;;;;;;10.10;99.90;;;;;;1955805;72;20351;-82
2022/11/19 10:07:10;;;;;;;;;;;9.80;99.90;;;;;;1948284;73;20147;-83
2022/11/19 10:09:55;;;;;;;;;;;9.50;99.90;;;;;;1944724;73;20121;-86
2022/11/19 10:12:32;;;;;;;;;;;9.50;99.90;;;;;;1947667;73;20307;-80
2022/11/19 10:15:12;;;;;;;;;;;9.50;99.90;;;;;;1945311;73;20147;-83
2022/11/19 10:17:44;;;;;;;;;;;9.50;99.90;;;;;;1944457;73;20189;-84
2022/11/19 10:20:18;;;;;;;;;;;9.50;99.90;;;;;;1944545;73;20147;-80
2022/11/19 10:22:46;;;;;;;;;;;9.40;99.90;;;;;;1946958;73;20308;-80
2022/11/19 10:25:16;;;;;;;;;;;9.40;99.90;;;;;;1950105;73;20318;-76
2022/11/19 10:27:47;;;;;;;;;;;9.40;99.90;;;;;;1943653;72;20100;-79
2022/11/19 10:30:14;;;;;;;;;;;9.40;99.90;;;;;;1950240;73;20108;-79
2022/11/19 10:32:45;;;;;;;;;;;9.30;99.90;;;;;;1942989;74;20116;-78
2022/11/19 10:35:16;;;;;;;;;;;9.20;99.90;;;;;;1948513;73;20105;-75
2022/11/19 10:37:50;;;;;;;;;;;9.30;99.90;;;;;;1946911;73;20097;-78
2022/11/19 10:40:18;;;;;;;;;;;9.40;99.90;;;;;;1947204;73;20128;-80
2022/11/19 10:42:46;;;;;;;;;;;9.50;99.90;;;;;;1948752;73;20150;-79
2022/11/19 10:45:17;;;;;;;;;;;9.50;99.90;;;;;;1946807;73;20194;-80
2022/11/19 10:47:55;;;;;;;;;;;9.50;99.90;;;;;;1944086;73;20120;-80
2022/11/19 10:50:24;;;;;;;;;;;9.30;99.90;;;;;;1946476;73;20112;-77
2022/11/19 10:52:53;;;;;;;;;;;9.30;99.90;;;;;;1948074;73;20112;-78
2022/11/19 10:55:23;;;;;;;;;;;9.60;99.90;;;;;;1942690;73;20205;-72
2022/11/19 10:57:52;;;;;;;;;;;9.60;99.90;;;;;;1947574;73;20223;-85
2022/11/19 11:00:18;;;;;;;;;;;9.70;99.90;;;;;;1948125;73;20173;-83
2022/11/19 11:02:46;;;;;;;;;;;9.60;99.90;;;;;;1945465;73;20150;-83
2022/11/19 11:05:14;;;;;;;;;;;9.60;99.90;;;;;;1945177;73;20198;-77
2022/11/19 11:07:43;;;;;;;;;;;9.70;99.90;;;;;;1949789;73;20150;-78
2022/11/19 11:10:25;;;;;;;;;;;9.50;99.90;;;;;;1952631;73;20186;-81
2022/11/19 11:15:39;;;;;;;;;;;9.30;99.90;;;;;;1947946;73;20116;-80
2022/11/19 11:18:06;;;;;;;;;;;9.30;99.90;;;;;;1946463;73;20340;-82
2022/11/19 11:20:35;;;;;;;;;;;9.40;99.90;;;;;;1949861;73;20131;-82
2022/11/19 11:23:03;;;;;;;;;;;9.40;99.90;;;;;;1948405;73;20339;-79
2022/11/19 11:25:29;;;;;;;;;;;9.50;99.90;;;;;;1946079;73;20417;-79
2022/11/19 11:28:12;;;;;;;;;;;9.60;99.90;;;;;;1947577;73;20112;-82
2022/11/19 11:30:54;;;;;;;;;;;9.60;99.90;;;;;;1944240;73;20475;-81
2022/11/19 11:33:23;;;;;;;;;;;9.70;99.90;;;;;;1947128;73;20112;-80
2022/11/19 11:35:49;;;;;;;;;;;9.70;99.90;;;;;;1944123;73;20252;-81
2022/11/19 11:38:16;;;;;;;;;;;9.60;99.90;;;;;;1950130;73;20112;-80
2022/11/19 11:40:44;;;;;;;;;;;9.50;99.90;;;;;;1944465;73;20116;-80
2022/11/19 11:43:13;;;;;;;;;;;9.60;99.90;;;;;;1944501;73;20146;-80
2022/11/19 11:45:39;;;;;;;;;;;9.60;99.90;;;;;;1946078;73;20159;-80
2022/11/19 11:48:08;;;;;;;;;;;9.60;99.90;;;;;;1944713;73;20120;-83
2022/11/19 11:50:35;;;;;;;;;;;9.70;99.90;;;;;;1941479;73;20120;-80
2022/11/19 11:53:03;;;;;;;;;;;9.80;99.90;;;;;;1952194;72;20112;-81
2022/11/19 11:55:30;;;;;;;;;;;9.80;99.90;;;;;;1949283;73;20171;-80
2022/11/19 11:57:58;;;;;;;;;;;9.80;99.90;;;;;;1949040;73;20119;-80
2022/11/19 12:00:38;;;;;;;;;;;9.80;99.90;;;;;;1945578;73;20208;-81
2022/11/19 12:03:09;;;;;;;;;;;9.80;99.90;;;;;;1944033;73;20336;-81
2022/11/19 12:05:52;;;;;;;;;;;9.90;99.90;;;;;;1944360;72;20101;-81
2022/11/19 12:08:30;;;;;;;;;;;9.80;99.90;;;;;;1951299;73;20116;-82
2022/11/19 12:11:16;;;;;;;;;;;9.80;99.90;;;;;;1944077;73;20352;-81
2022/11/19 12:13:53;;;;;;;;;;;9.80;99.90;;;;;;1926759;73;20182;-79
2022/11/19 12:16:39;;;;;;;;;;;9.80;99.90;;;;;;1945205;73;20206;-79
2022/11/19 12:19:07;;;;;;;;;;;9.70;99.90;;;;;;1946167;73;20101;-76
2022/11/19 12:21:35;;;;;;;;;;;9.70;99.90;;;;;;1945205;73;20116;-77
2022/11/19 12:24:22;;;;;;;;;;;9.70;99.90;;;;;;1945548;73;20108;-76
2022/11/19 12:26:50;;;;;;;;;;;9.70;99.90;;;;;;1943866;73;20120;-75
2022/11/19 12:29:35;;;;;;;;;;;9.60;99.90;;;;;;1944293;73;20105;-76
2022/11/19 12:32:03;;;;;;;;;;;9.70;99.90;;;;;;1947788;73;20170;-76
2022/11/19 12:34:32;;;;;;;;;;;9.70;99.90;;;;;;1948139;73;20189;-77
2022/11/19 12:37:00;;;;;;;;;;;9.70;99.90;;;;;;1945881;72;20315;-77
2022/11/19 12:39:31;;;;;;;;;;;9.70;99.90;;;;;;1946485;73;20116;-79
2022/11/19 12:41:59;;;;;;;;;;;9.60;99.90;;;;;;1945521;73;20166;-80
2022/11/19 12:44:37;;;;;;;;;;;9.70;99.90;;;;;;1946524;73;20311;-77
2022/11/19 12:47:20;;;;;;;;;;;9.40;99.90;;;;;;1949661;73;20124;-77
2022/11/19 12:50:01;;;;;;;;;;;9.40;99.90;;;;;;1944910;73;20358;-77
2022/11/19 12:52:46;;;;;;;;;;;9.30;99.90;;;;;;1946648;73;20139;-80
2022/11/19 12:55:26;;;;;;;;;;;9.20;99.90;;;;;;1949189;73;20151;-80
2022/11/19 12:58:12;;;;;;;;;;;9.10;99.90;;;;;;1949512;73;20097;-77
2022/11/19 13:00:41;;;;;;;;;;;9.10;99.90;;;;;;1944331;73;20108;-79
2022/11/19 13:03:13;;;;;;;;;;;9.00;99.90;;;;;;1948307;73;20108;-79
2022/11/19 13:05:42;;;;;;;;;;;8.90;99.90;;;;;;1943945;73;20221;-77
2022/11/19 13:08:19;;;;;;;;;;;8.90;99.90;;;;;;1947849;73;20101;-77
2022/11/19 13:10:48;;;;;;;;;;;8.80;99.90;;;;;;1951917;73;20151;-75
2022/11/19 13:13:16;;;;;;;;;;;8.90;99.90;;;;;;1946894;72;20150;-76
2022/11/19 13:15:44;;;;;;;;;;;8.90;99.90;;;;;;1947015;73;20109;-76
2022/11/19 13:18:16;;;;;;;;;;;9.00;99.90;;;;;;1945208;73;20159;-78
2022/11/19 13:20:53;;;;;;;;;;;8.90;99.90;;;;;;1947477;73;20150;-78
2022/11/19 13:23:34;;;;;;;;;;;8.90;99.90;;;;;;1949450;73;20221;-76
2022/11/19 13:26:08;;;;;;;;;;;8.80;99.90;;;;;;1948395;73;20156;-75
2022/11/19 13:28:51;;;;;;;;;;;8.80;99.90;;;;;;1936524;73;20109;-73
2022/11/19 13:31:22;;;;;;;;;;;8.70;99.90;;;;;;1950951;73;20116;-77
2022/11/19 13:33:50;;;;;;;;;;;8.60;99.90;;;;;;1941756;73;20119;-74
2022/11/19 13:36:22;;;;;;;;;;;8.60;99.90;;;;;;1945503;73;20154;-76
2022/11/19 13:38:50;;;;;;;;;;;8.60;99.90;;;;;;1943597;73;20136;-75
2022/11/19 13:41:20;;;;;;;;;;;8.60;99.90;;;;;;1944794;73;20143;-80
2022/11/19 13:46:36;;;;;;;;;;;8.60;99.90;;;;;;1948525;73;20224;-76
2022/11/19 13:49:07;;;;;;;;;;;8.60;99.90;;;;;;1912970;74;20415;-80
2022/11/19 13:51:38;;;;;;;;;;;8.70;99.90;;;;;;1939091;73;20337;-76
2022/11/19 13:54:06;;;;;;;;;;;8.60;99.90;;;;;;1947571;73;20125;-76
2022/11/19 13:56:45;;;;;;;;;;;8.70;99.90;;;;;;1943721;73;20159;-78
2022/11/19 13:59:23;;;;;;;;;;;8.80;99.90;;;;;;1945380;73;20109;-77
2022/11/19 14:02:08;;;;;;;;;;;8.80;99.90;;;;;;1916154;73;20134;-78
2022/11/19 14:04:48;;;;;;;;;;;8.80;99.90;;;;;;1946574;73;20124;-81
2022/11/19 14:07:16;;;;;;;;;;;8.90;99.90;;;;;;1945253;73;20163;-77
2022/11/19 14:09:45;;;;;;;;;;;8.80;99.90;;;;;;1944066;73;20115;-79
2022/11/19 14:12:30;;;;;;;;;;;8.80;99.90;;;;;;1941322;73;20204;-83
2022/11/19 14:26:43;;;;;;;;;;;9.10;99.90;;;;;;2023563;71;20198;-75
2022/11/19 14:29:26;;;;;;;;;;;9.10;99.90;;;;;;2022589;71;20139;-74
2022/11/19 14:32:07;;;;;;;;;;;9.30;99.90;;;;;;2022081;69;20121;-76
2022/11/19 14:34:34;;;;;;;;;;;9.40;99.90;;;;;;2023880;71;20157;-74
2022/11/19 14:37:12;;;;;;;;;;;9.50;99.90;;;;;;2023610;71;20201;-76
2022/11/19 14:39:39;;;;;;;;;;;9.50;99.90;;;;;;2023266;71;20208;-75
2022/11/19 14:42:13;;;;;;;;;;;10.10;99.90;;;;;;2024581;71;20184;-74
2022/11/19 14:44:41;;;;;;;;;;;10.60;99.90;;;;;;2024758;71;20135;-73
2022/11/19 14:47:30;;;;;;;;;;;10.60;99.90;;;;;;2024758;70;20142;-74
2022/11/19 14:49:56;;;;;;;;;;;10.60;99.90;;;;;;2023782;71;20218;-74
2022/11/19 14:52:26;;;;;;;;;;;10.50;99.90;;;;;;2024346;71;20154;-74
2022/11/19 14:55:01;;;;;;;;;;;10.30;99.90;;;;;;2024277;69;20110;-80
2022/11/19 14:57:34;;;;;;;;;;;10.30;99.90;;;;;;2024658;71;20374;-76
2022/11/19 15:00:14;;;;;;;;;;;10.10;99.90;;;;;;2023940;71;20115;-75
2022/11/19 15:02:44;;;;;;;;;;;9.90;99.90;;;;;;2023902;71;20110;-73
2022/11/19 15:05:28;;;;;;;;;;;9.80;99.90;;;;;;2024423;69;20123;-77
2022/11/19 15:08:16;;;;;;;;;;;9.60;99.90;;;;;;2024864;71;20121;-73
2022/11/19 15:10:50;;;;;;;;;;;9.70;99.90;;;;;;2024578;69;20318;-75
2022/11/19 15:13:18;;;;;;;;;;;9.70;99.90;;;;;;2021824;71;20137;-75
2022/11/19 15:15:45;;;;;;;;;;;9.50;99.90;;;;;;2024191;70;20265;-74